Time;durP1;ratioP1;P1;durP2;ratioP2;P2;SDS_P1;SDS_P2;PMS_P1;PMS_P2;Temp;Humidity;BMP_temperature;BMP_pressure;BME280_temperature;BME280_humidity;BME280_pressure;Samples;Min_cycle;Max_cycle;Signal;HPM_P1;HPM_P2
2021/06/24 00:01:57;;;;;;;8.98;5.50;;;;;;;12.35;100.00;101302.94;5056025;28;20078;-79
2021/06/24 00:04:24;;;;;;;7.15;5.30;;;;;;;12.37;99.93;101298.50;5074182;28;20066;-79
2021/06/24 00:06:50;;;;;;;8.23;5.88;;;;;;;12.39;99.55;101301.13;5067372;28;20037;-80
2021/06/24 00:09:17;;;;;;;6.95;5.05;;;;;;;12.35;99.77;101302.06;5072405;28;20048;-79
2021/06/24 00:11:44;;;;;;;6.75;5.55;;;;;;;12.34;100.00;101309.13;5070782;28;20041;-79
2021/06/24 00:14:10;;;;;;;5.95;5.22;;;;;;;12.32;100.00;101303.00;5043932;28;20044;-79
2021/06/24 00:16:37;;;;;;;6.18;5.40;;;;;;;12.33;100.00;101302.09;5061902;28;20060;-79
2021/06/24 00:19:04;;;;;;;8.57;6.10;;;;;;;12.38;100.00;101294.06;5071575;28;20043;-79
2021/06/24 00:21:30;;;;;;;7.63;5.47;;;;;;;12.44;99.83;101286.00;5070438;28;20056;-79
2021/06/24 00:23:57;;;;;;;6.90;5.60;;;;;;;12.44;99.99;101282.47;5060232;28;20106;-79
2021/06/24 00:26:23;;;;;;;7.80;5.60;;;;;;;12.42;100.00;101278.97;5037622;28;20068;-79
2021/06/24 00:28:50;;;;;;;10.20;5.50;;;;;;;12.40;100.00;101271.06;5062551;28;20098;-79
2021/06/24 00:31:17;;;;;;;7.88;5.90;;;;;;;12.33;100.00;101270.31;5064015;28;20127;-80
2021/06/24 00:33:44;;;;;;;9.85;6.00;;;;;;;12.31;100.00;101263.28;5052718;28;20544;-79
2021/06/24 00:36:10;;;;;;;8.60;5.90;;;;;;;12.27;100.00;101273.03;5077057;28;20397;-80
2021/06/24 00:38:37;;;;;;;8.55;6.85;;;;;;;12.23;100.00;101281.97;5054125;28;20044;-80
2021/06/24 00:41:04;;;;;;;8.02;5.93;;;;;;;12.22;100.00;101280.22;5064970;28;20041;-80
2021/06/24 00:43:32;;;;;;;8.90;5.80;;;;;;;12.23;100.00;101284.63;5072695;28;20497;-80
2021/06/24 00:45:58;;;;;;;7.88;5.90;;;;;;;12.26;100.00;101289.84;5069543;28;20032;-80
2021/06/24 00:48:26;;;;;;;8.38;6.05;;;;;;;12.27;100.00;101282.78;5043642;28;20556;-80
2021/06/24 00:50:53;;;;;;;8.57;6.45;;;;;;;12.24;100.00;101281.06;5054427;28;20512;-80
2021/06/24 00:53:19;;;;;;;9.13;6.13;;;;;;;12.17;100.00;101276.75;5079878;28;20090;-80
2021/06/24 00:55:46;;;;;;;7.75;5.90;;;;;;;12.19;100.00;101276.72;5066814;28;20044;-79
2021/06/24 00:58:25;;;;;;;7.85;5.95;;;;;;;12.20;100.00;101282.03;5040319;28;20051;-79
2021/06/24 01:00:54;;;;;;;8.77;5.97;;;;;;;12.15;100.00;101278.56;5070678;28;20056;-79
2021/06/24 01:03:21;;;;;;;6.63;5.43;;;;;;;12.13;100.00;101277.72;5055978;28;20429;-80
2021/06/24 01:05:48;;;;;;;8.77;5.32;;;;;;;12.12;100.00;101281.28;5068704;28;20029;-79
2021/06/24 01:08:15;;;;;;;7.65;6.13;;;;;;;12.12;100.00;101283.94;5037462;28;20094;-79
2021/06/24 01:10:47;;;;;;;7.80;5.70;;;;;;;12.11;100.00;101279.53;5070053;28;20452;-80
2021/06/24 01:13:14;;;;;;;7.93;6.38;;;;;;;12.13;100.00;101277.72;5072423;28;20094;-80
2021/06/24 01:15:41;;;;;;;7.32;5.78;;;;;;;12.09;100.00;101276.03;5055641;28;20048;-79
2021/06/24 01:18:09;;;;;;;9.20;5.68;;;;;;;12.09;100.00;101278.66;5055764;28;20064;-80
2021/06/24 01:20:36;;;;;;;7.25;6.25;;;;;;;12.11;100.00;101276.91;5075998;28;20667;-80
2021/06/24 01:23:04;;;;;;;9.73;6.50;;;;;;;12.10;100.00;101277.75;5052126;28;20049;-79
2021/06/24 01:25:32;;;;;;;7.75;5.50;;;;;;;12.05;100.00;101272.56;5055054;28;20102;-79
2021/06/24 01:28:01;;;;;;;7.82;5.75;;;;;;;12.07;100.00;101280.47;5073592;28;20032;-79
2021/06/24 01:30:28;;;;;;;8.45;5.75;;;;;;;12.02;100.00;101284.97;5050532;28;20202;-79
2021/06/24 01:32:56;;;;;;;9.93;5.32;;;;;;;12.04;100.00;101284.06;5082951;28;20115;-79
2021/06/24 01:35:24;;;;;;;7.25;5.95;;;;;;;12.02;100.00;101284.97;5037869;28;20040;-79
2021/06/24 01:37:59;;;;;;;7.35;5.93;;;;;;;12.06;100.00;101287.56;5055202;28;20041;-79
2021/06/24 01:40:26;;;;;;;6.88;5.82;;;;;;;12.06;100.00;101297.28;5053411;28;21053;-80
2021/06/24 01:42:54;;;;;;;8.38;5.82;;;;;;;12.04;100.00;101299.06;5074196;28;20047;-79
2021/06/24 01:45:21;;;;;;;7.72;6.45;;;;;;;12.00;100.00;101305.31;5064995;28;20044;-79
2021/06/24 01:47:48;;;;;;;8.23;6.68;;;;;;;12.02;100.00;101320.28;5059702;28;20090;-79
2021/06/24 01:50:15;;;;;;;6.53;5.75;;;;;;;12.07;100.00;101318.44;5054875;28;20045;-79
2021/06/24 01:52:46;;;;;;;6.50;5.60;;;;;;;12.04;100.00;101312.31;5043194;28;20048;-79
2021/06/24 01:55:14;;;;;;;6.30;5.55;;;;;;;11.89;100.00;101308.13;5057173;28;20298;-79
2021/06/24 01:57:41;;;;;;;6.82;5.88;;;;;;;11.93;100.00;101312.47;5072432;28;20040;-79
2021/06/24 02:00:10;;;;;;;8.05;5.82;;;;;;;11.95;100.00;101323.94;5059785;28;20490;-79
2021/06/24 02:02:37;;;;;;;8.82;6.18;;;;;;;11.94;100.00;101315.97;5085809;28;20048;-79
2021/06/24 02:05:05;;;;;;;7.57;6.03;;;;;;;11.97;100.00;101321.25;5055105;28;20044;-79
2021/06/24 02:07:32;;;;;;;8.10;5.78;;;;;;;11.95;100.00;101329.22;5054065;28;20094;-79
2021/06/24 02:09:59;;;;;;;8.95;5.88;;;;;;;11.99;100.00;101330.03;5088169;28;20711;-79
2021/06/24 02:12:25;;;;;;;7.43;5.97;;;;;;;12.05;100.00;101333.47;5065406;28;20037;-79
2021/06/24 02:14:52;;;;;;;6.93;5.63;;;;;;;12.05;100.00;101325.53;5047737;28;20041;-79
2021/06/24 02:17:19;;;;;;;7.80;6.47;;;;;;;12.07;100.00;101328.16;5054374;28;20041;-80
2021/06/24 02:19:45;;;;;;;8.00;6.28;;;;;;;12.06;100.00;101318.47;5041362;28;20098;-80
2021/06/24 02:22:12;;;;;;;8.43;6.60;;;;;;;12.02;100.00;101308.78;5055173;28;20494;-79
2021/06/24 02:24:39;;;;;;;6.57;5.90;;;;;;;12.02;100.00;101306.16;5073446;28;20559;-80
2021/06/24 02:27:06;;;;;;;8.93;5.88;;;;;;;12.06;100.00;101297.28;5077445;28;20044;-79
2021/06/24 02:29:32;;;;;;;7.88;6.10;;;;;;;12.07;100.00;101280.47;5085708;28;20047;-79
2021/06/24 02:31:59;;;;;;;7.38;5.45;;;;;;;12.02;100.00;101282.31;5073370;28;20455;-79
2021/06/24 02:34:26;;;;;;;9.70;6.47;;;;;;;11.86;100.00;101284.38;5060821;28;20036;-80
2021/06/24 02:36:52;;;;;;;7.10;6.13;;;;;;;11.91;100.00;101289.56;5060502;28;20067;-80
2021/06/24 02:39:19;;;;;;;7.47;6.53;;;;;;;11.97;100.00;101287.69;5040548;28;20571;-81
2021/06/24 02:41:46;;;;;;;7.00;5.85;;;;;;;11.98;100.00;101286.81;5036693;28;20101;-80
2021/06/24 02:44:12;;;;;;;8.90;5.65;;;;;;;12.00;100.00;101277.03;5058009;28;20048;-80
2021/06/24 02:46:39;;;;;;;8.38;6.13;;;;;;;11.98;100.00;101275.34;5068950;28;20036;-80
2021/06/24 02:49:06;;;;;;;7.15;6.10;;;;;;;12.00;100.00;101273.53;5056481;28;20048;-79
2021/06/24 02:51:33;;;;;;;9.15;5.72;;;;;;;11.95;100.00;101278.03;5048684;28;20429;-79
2021/06/24 02:53:59;;;;;;;8.80;6.10;;;;;;;12.01;100.00;101276.16;5052646;28;20091;-79
2021/06/24 02:56:26;;;;;;;7.95;6.60;;;;;;;12.04;100.00;101270.81;5045883;28;20110;-79
2021/06/24 02:58:52;;;;;;;10.65;6.45;;;;;;;11.97;100.00;101273.59;5067078;28;20563;-79
2021/06/24 03:01:19;;;;;;;7.82;5.78;;;;;;;11.97;100.00;101274.47;5048701;28;20047;-79
2021/06/24 03:03:46;;;;;;;8.15;6.35;;;;;;;11.93;100.00;101267.44;5068326;28;20041;-79
2021/06/24 03:06:13;;;;;;;8.77;5.88;;;;;;;11.98;100.00;101270.03;5071811;28;20161;-79
2021/06/24 03:08:39;;;;;;;7.90;6.30;;;;;;;12.00;100.00;101268.22;5051020;28;20548;-79
2021/06/24 03:11:06;;;;;;;8.95;6.65;;;;;;;12.04;100.00;101278.75;5052179;28;20037;-79
2021/06/24 03:13:33;;;;;;;6.55;5.90;;;;;;;12.06;100.00;101270.78;5060233;28;20102;-79
2021/06/24 03:15:59;;;;;;;7.25;5.88;;;;;;;12.05;100.00;101261.97;5059116;28;20040;-79
2021/06/24 03:18:26;;;;;;;7.30;5.70;;;;;;;12.04;100.00;101260.22;5069238;28;20040;-79
2021/06/24 03:20:53;;;;;;;6.70;6.00;;;;;;;11.98;100.00;101249.72;5034877;28;20040;-79
2021/06/24 03:23:20;;;;;;;8.93;6.55;;;;;;;12.07;100.00;101248.69;5066897;28;20064;-79
2021/06/24 03:25:48;;;;;;;8.40;6.28;;;;;;;12.06;100.00;101252.25;5063917;28;20921;-79
2021/06/24 03:28:14;;;;;;;8.90;6.35;;;;;;;12.15;100.00;101244.13;5057674;28;20040;-79
2021/06/24 03:30:42;;;;;;;7.55;6.40;;;;;;;12.18;100.00;101245.84;5077710;28;20044;-79
2021/06/24 03:33:09;;;;;;;8.10;6.78;;;;;;;12.16;100.00;101248.53;5080047;28;20513;-79
2021/06/24 03:35:36;;;;;;;7.68;6.50;;;;;;;12.22;100.00;101245.78;5051091;28;20571;-79
2021/06/24 03:38:02;;;;;;;6.78;5.80;;;;;;;12.22;100.00;101251.09;5053899;28;20064;-79
2021/06/24 03:40:29;;;;;;;6.90;5.70;;;;;;;12.25;100.00;101240.41;5035268;28;20052;-79
2021/06/24 03:42:56;;;;;;;7.28;6.13;;;;;;;12.30;100.00;101246.53;5060868;28;20040;-79
2021/06/24 03:45:23;;;;;;;8.50;6.35;;;;;;;12.32;100.00;101246.47;5049886;28;20036;-79
2021/06/24 03:47:50;;;;;;;7.75;5.90;;;;;;;12.30;100.00;101235.91;5069179;28;20098;-80
2021/06/24 03:50:17;;;;;;;10.10;6.15;;;;;;;12.31;100.00;101235.00;5072898;28;20051;-79
2021/06/24 03:52:43;;;;;;;6.95;5.97;;;;;;;12.33;100.00;101232.34;5052663;28;20067;-80
2021/06/24 03:55:11;;;;;;;7.18;5.43;;;;;;;12.32;100.00;101234.09;5061936;28;20509;-79
2021/06/24 03:57:55;;;;;;;7.05;5.90;;;;;;;12.48;100.00;101225.88;5042660;28;20490;-80
2021/06/24 04:00:21;;;;;;;7.15;6.05;;;;;;;12.48;100.00;101218.78;5063360;28;20052;-79
2021/06/24 04:02:48;;;;;;;6.93;5.93;;;;;;;12.55;100.00;101219.56;5068934;28;20036;-79
2021/06/24 04:05:15;;;;;;;7.35;5.82;;;;;;;12.56;100.00;101216.00;5069038;28;20094;-80
2021/06/24 04:07:41;;;;;;;8.60;6.22;;;;;;;12.55;100.00;101214.25;5056350;28;20109;-79
2021/06/24 04:10:09;;;;;;;7.45;6.40;;;;;;;12.57;100.00;101210.66;5051945;28;20037;-79
2021/06/24 04:12:35;;;;;;;7.68;6.07;;;;;;;12.62;100.00;101207.94;5052156;28;20443;-79
2021/06/24 04:15:03;;;;;;;8.10;6.13;;;;;;;12.63;100.00;101207.03;5090602;28;20101;-79
2021/06/24 04:17:29;;;;;;;9.13;6.18;;;;;;;12.67;100.00;101201.63;5059164;28;20032;-80
2021/06/24 04:19:56;;;;;;;6.32;5.45;;;;;;;12.66;100.00;101202.53;5037447;28;20514;-80
2021/06/24 04:22:23;;;;;;;7.68;5.75;;;;;;;12.74;100.00;101197.06;5074223;28;20037;-80
2021/06/24 04:24:50;;;;;;;8.15;5.57;;;;;;;12.77;100.00;101199.66;5069734;28;20174;-79
2021/06/24 04:27:16;;;;;;;7.15;6.25;;;;;;;12.87;100.00;101192.41;5076366;28;20048;-79
2021/06/24 04:29:43;;;;;;;7.45;5.68;;;;;;;12.89;100.00;101194.09;5071367;28;20101;-80
2021/06/24 04:32:09;;;;;;;6.53;5.63;;;;;;;12.92;100.00;101199.31;5063558;28;20040;-79
2021/06/24 04:34:36;;;;;;;8.93;6.00;;;;;;;12.90;100.00;101190.53;5045623;28;20099;-80
2021/06/24 04:37:03;;;;;;;7.13;5.72;;;;;;;12.96;100.00;101192.19;5049819;28;20086;-80
2021/06/24 04:39:30;;;;;;;13.07;7.18;;;;;;;13.02;100.00;101191.16;5059578;28;20040;-79
2021/06/24 04:42:13;;;;;;;7.70;6.05;;;;;;;13.06;100.00;101187.56;5062229;28;20100;-81
2021/06/24 04:44:40;;;;;;;7.75;6.95;;;;;;;13.12;100.00;101187.41;5059650;28;20048;-81
2021/06/24 04:47:06;;;;;;;10.07;6.72;;;;;;;13.15;100.00;101176.72;5052550;28;20040;-80
2021/06/24 04:49:33;;;;;;;9.50;6.35;;;;;;;13.19;100.00;101189.00;5076785;28;20036;-79
2021/06/24 04:52:00;;;;;;;8.18;6.75;;;;;;;13.23;100.00;101198.69;5053508;28;20402;-79
2021/06/24 04:54:27;;;;;;;7.90;6.63;;;;;;;13.28;100.00;101188.81;5082172;28;20040;-79
2021/06/24 04:56:53;;;;;;;8.38;6.50;;;;;;;13.35;100.00;101200.19;5060954;28;20071;-80
2021/06/24 04:59:20;;;;;;;9.40;6.10;;;;;;;13.41;100.00;101200.91;5070235;28;20040;-79
2021/06/24 05:01:47;;;;;;;9.65;6.78;;;;;;;13.47;100.00;101195.47;5069970;28;20513;-79
2021/06/24 05:04:13;;;;;;;10.32;6.82;;;;;;;13.53;100.00;101203.25;5074195;28;20060;-80
2021/06/24 05:06:41;;;;;;;9.07;7.13;;;;;;;13.61;100.00;101200.41;5038477;28;20090;-79
2021/06/24 05:09:08;;;;;;;8.65;6.57;;;;;;;13.67;100.00;101194.09;5086754;28;20036;-80
2021/06/24 05:11:34;;;;;;;9.02;6.32;;;;;;;13.71;100.00;101194.00;5065025;28;20040;-79
2021/06/24 05:14:01;;;;;;;9.00;7.13;;;;;;;13.72;100.00;101200.19;5057765;28;20106;-80
2021/06/24 05:16:27;;;;;;;8.02;6.07;;;;;;;13.76;100.00;101205.38;5068705;28;20040;-80
2021/06/24 05:18:54;;;;;;;6.95;5.97;;;;;;;13.79;100.00;101201.78;5044874;28;20599;-80
2021/06/24 05:21:21;;;;;;;7.10;6.10;;;;;;;13.82;100.00;101203.47;5070905;28;20041;-80
2021/06/24 05:23:48;;;;;;;8.15;6.00;;;;;;;13.91;100.00;101209.41;5059964;28;20097;-80
2021/06/24 05:26:14;;;;;;;7.25;6.18;;;;;;;13.95;100.00;101210.22;5054899;28;20500;-79
2021/06/24 05:28:41;;;;;;;7.15;6.45;;;;;;;13.97;100.00;101205.75;5076407;28;20037;-80
2021/06/24 05:31:07;;;;;;;7.05;6.03;;;;;;;14.03;100.00;101211.75;5071400;28;20041;-80
2021/06/24 05:33:34;;;;;;;7.28;5.50;;;;;;;14.05;100.00;101217.91;5066976;28;20108;-81
2021/06/24 05:36:01;;;;;;;10.32;6.57;;;;;;;14.13;100.00;101208.88;5068460;28;20044;-80
2021/06/24 05:38:27;;;;;;;8.18;6.80;;;;;;;14.18;100.00;101207.81;5081413;28;20036;-80
2021/06/24 05:40:56;;;;;;;9.98;6.57;;;;;;;14.21;100.00;101212.19;5068906;28;20455;-79
2021/06/24 05:43:22;;;;;;;8.15;6.38;;;;;;;14.28;100.00;101219.06;5050825;28;20041;-79
2021/06/24 05:45:49;;;;;;;7.90;6.60;;;;;;;14.29;100.00;101221.72;5065535;28;20040;-80
2021/06/24 05:48:16;;;;;;;7.32;6.50;;;;;;;14.36;100.00;101225.06;5053866;28;20043;-80
2021/06/24 05:50:42;;;;;;;7.55;6.03;;;;;;;14.43;100.00;101226.66;5057439;28;20506;-79
2021/06/24 05:53:10;;;;;;;7.53;5.68;;;;;;;14.49;100.00;101229.19;5057299;28;20044;-81
2021/06/24 05:55:50;;;;;;;9.07;6.43;;;;;;;14.55;100.00;101222.81;5044248;28;20044;-81
2021/06/24 05:58:25;;;;;;;8.50;7.38;;;;;;;14.67;100.00;101224.25;5058461;28;20033;-81
2021/06/24 06:00:53;;;;;;;9.50;7.15;;;;;;;14.80;100.00;101226.53;5052724;28;20064;-79
2021/06/24 06:03:21;;;;;;;8.85;7.10;;;;;;;14.90;100.00;101225.34;5052865;28;20093;-79
2021/06/24 06:05:49;;;;;;;10.65;7.90;;;;;;;14.95;100.00;101211.88;5047198;28;20046;-79
2021/06/24 06:08:16;;;;;;;10.00;6.53;;;;;;;14.96;100.00;101218.94;5072253;28;20107;-79
2021/06/24 06:10:43;;;;;;;10.13;7.82;;;;;;;14.82;100.00;101216.72;5079457;28;20067;-79
2021/06/24 06:13:10;;;;;;;9.23;7.28;;;;;;;14.79;100.00;101222.09;5051953;28;20070;-78
2021/06/24 06:15:40;;;;;;;9.05;7.25;;;;;;;14.82;100.00;101231.81;5033822;28;20886;-80
2021/06/24 06:18:17;;;;;;;8.88;6.57;;;;;;;14.86;100.00;101225.47;5053429;28;20041;-78
2021/06/24 06:20:45;;;;;;;8.45;6.50;;;;;;;14.92;100.00;101226.16;5082102;28;20041;-78
2021/06/24 06:23:12;;;;;;;11.82;8.55;;;;;;;15.02;100.00;101232.09;5059875;28;20045;-78
2021/06/24 06:25:39;;;;;;;10.65;8.85;;;;;;;15.10;100.00;101237.19;5023656;28;20102;-78
2021/06/24 06:28:07;;;;;;;8.50;6.88;;;;;;;15.23;100.00;101233.25;5054565;28;20135;-78
2021/06/24 06:30:34;;;;;;;9.43;7.72;;;;;;;15.31;100.00;101230.34;5049030;28;20047;-80
2021/06/24 06:33:02;;;;;;;10.77;7.47;;;;;;;15.38;100.00;101235.41;5052265;28;20086;-78
2021/06/24 06:35:29;;;;;;;10.73;7.95;;;;;;;15.45;100.00;101230.75;5070239;28;20040;-79
2021/06/24 06:37:57;;;;;;;8.40;7.20;;;;;;;15.52;100.00;101231.44;5063734;28;20040;-79
2021/06/24 06:40:24;;;;;;;8.30;6.97;;;;;;;15.61;100.00;101226.72;5056835;28;20037;-78
2021/06/24 06:42:50;;;;;;;11.43;7.18;;;;;;;15.64;100.00;101223.13;5039459;28;20041;-78
2021/06/24 06:45:21;;;;;;;7.93;6.82;;;;;;;15.72;100.00;101229.94;5044562;28;20044;-79
2021/06/24 06:47:48;;;;;;;8.45;7.38;;;;;;;15.76;100.00;101228.03;5055328;28;20037;-79
2021/06/24 06:50:15;;;;;;;10.00;8.15;;;;;;;15.85;100.00;101229.53;5052286;28;20029;-79
2021/06/24 06:52:42;;;;;;;15.55;7.32;;;;;;;15.87;100.00;101220.53;5058195;28;20044;-79
2021/06/24 06:55:09;;;;;;;10.93;7.00;;;;;;;15.96;100.00;101228.22;5049385;28;20090;-79
2021/06/24 06:57:36;;;;;;;11.05;7.97;;;;;;;16.03;100.00;101227.09;5063190;28;20044;-79
2021/06/24 07:00:05;;;;;;;11.45;7.15;;;;;;;16.10;100.00;101226.91;5024512;28;20044;-79
2021/06/24 07:02:32;;;;;;;8.52;7.00;;;;;;;16.10;100.00;101226.91;5048816;28;20045;-82
2021/06/24 07:04:58;;;;;;;9.25;7.43;;;;;;;16.11;100.00;101213.50;5068303;28;20045;-81
2021/06/24 07:07:25;;;;;;;8.68;6.97;;;;;;;16.13;100.00;101219.66;5050384;28;20044;-80
2021/06/24 07:09:55;;;;;;;9.55;8.20;;;;;;;16.18;100.00;101219.50;5035654;28;20575;-81
2021/06/24 07:12:21;;;;;;;11.25;7.90;;;;;;;16.20;100.00;101215.84;5049850;28;20044;-80
2021/06/24 07:14:49;;;;;;;11.10;8.73;;;;;;;16.12;100.00;101223.25;5052124;28;20048;-81
2021/06/24 07:17:16;;;;;;;11.10;8.30;;;;;;;16.09;100.00;101223.38;5061730;28;20117;-80
2021/06/24 07:19:43;;;;;;;10.80;8.70;;;;;;;16.13;100.00;101218.78;5036851;28;20053;-80
2021/06/24 07:22:10;;;;;;;10.68;8.05;;;;;;;16.14;100.00;101225.84;5064016;28;20135;-81
2021/06/24 07:24:36;;;;;;;13.60;9.13;;;;;;;16.17;100.00;101226.63;5028586;28;20040;-79
2021/06/24 07:27:04;;;;;;;9.10;7.95;;;;;;;16.18;100.00;101225.72;5042371;28;20041;-79
2021/06/24 07:29:31;;;;;;;10.25;7.95;;;;;;;16.23;100.00;101228.22;5058921;28;20555;-80
2021/06/24 07:31:57;;;;;;;10.80;8.35;;;;;;;16.24;100.00;101230.84;5047240;28;20041;-81
2021/06/24 07:34:24;;;;;;;8.98;7.95;;;;;;;16.27;100.00;101229.84;5036034;28;20147;-78
2021/06/24 07:36:51;;;;;;;7.95;6.68;;;;;;;16.32;100.00;101235.91;5051721;28;20049;-80
2021/06/24 07:39:17;;;;;;;10.57;8.68;;;;;;;16.46;100.00;101241.59;5062580;28;20041;-80
2021/06/24 07:41:45;;;;;;;10.75;8.57;;;;;;;16.50;100.00;101247.72;5044129;28;20048;-80
2021/06/24 07:44:12;;;;;;;9.55;7.68;;;;;;;16.49;100.00;101249.50;5061066;28;20063;-79
2021/06/24 07:46:38;;;;;;;11.57;8.57;;;;;;;16.43;100.00;101241.72;5046926;28;20064;-80
2021/06/24 07:49:05;;;;;;;11.27;8.02;;;;;;;16.53;100.00;101234.25;5033829;28;20597;-80
2021/06/24 07:51:32;;;;;;;10.35;8.20;;;;;;;16.61;100.00;101234.84;5060461;28;20070;-80
2021/06/24 07:53:59;;;;;;;10.43;8.80;;;;;;;16.69;100.00;101234.63;5054264;28;20064;-80
2021/06/24 07:56:25;;;;;;;11.68;8.48;;;;;;;16.76;100.00;101229.00;5066732;28;20048;-81
2021/06/24 07:58:53;;;;;;;12.43;9.38;;;;;;;16.82;100.00;101230.56;5040660;28;20578;-80
2021/06/24 08:01:20;;;;;;;10.63;8.45;;;;;;;16.86;100.00;101227.72;5067029;28;20541;-80
2021/06/24 08:03:51;;;;;;;11.63;8.85;;;;;;;16.91;100.00;101226.69;5054615;28;20048;-81
2021/06/24 08:06:18;;;;;;;15.38;8.68;;;;;;;16.93;100.00;101230.16;5068101;28;20033;-80
2021/06/24 08:08:44;;;;;;;10.15;8.85;;;;;;;17.11;100.00;101240.13;5051151;28;20477;-81
2021/06/24 08:11:11;;;;;;;8.38;6.97;;;;;;;17.04;100.00;101238.63;5056174;28;20051;-81
2021/06/24 08:13:38;;;;;;;8.25;7.43;;;;;;;17.00;100.00;101234.34;5056025;28;20032;-80
2021/06/24 08:16:05;;;;;;;10.82;8.18;;;;;;;17.15;100.00;101231.06;5054141;28;20526;-80
2021/06/24 08:18:32;;;;;;;11.35;7.57;;;;;;;17.21;100.00;101230.84;5058681;28;20044;-81
2021/06/24 08:21:01;;;;;;;8.30;7.13;;;;;;;17.32;100.00;101241.09;5051150;28;20049;-81
2021/06/24 08:23:27;;;;;;;9.90;6.85;;;;;;;17.39;100.00;101234.59;5048970;28;20445;-79
2021/06/24 08:25:54;;;;;;;9.75;8.35;;;;;;;17.41;100.00;101232.75;5052319;28;20037;-79
2021/06/24 08:28:20;;;;;;;9.32;7.65;;;;;;;17.43;100.00;101233.56;5052156;28;20040;-81
2021/06/24 08:30:48;;;;;;;9.73;6.68;;;;;;;17.49;100.00;101229.75;5055460;28;20048;-81
2021/06/24 08:33:15;;;;;;;8.50;6.63;;;;;;;17.52;100.00;101234.97;5039023;28;20043;-81
2021/06/24 08:35:42;;;;;;;10.30;7.63;;;;;;;17.36;100.00;101224.91;5072166;28;20052;-80
2021/06/24 08:38:12;;;;;;;9.43;7.25;;;;;;;17.65;100.00;101215.69;5057291;28;20041;-80
2021/06/24 08:40:40;;;;;;;7.57;6.28;;;;;;;17.71;100.00;101218.16;5068392;28;20105;-81
2021/06/24 08:43:08;;;;;;;10.40;7.38;;;;;;;17.76;100.00;101218.00;5073937;28;20045;-80
2021/06/24 08:45:35;;;;;;;7.70;6.60;;;;;;;17.76;100.00;101218.00;5050443;28;20215;-81
2021/06/24 08:48:02;;;;;;;10.10;7.20;;;;;;;17.82;100.00;101211.50;5040435;28;20418;-80
2021/06/24 08:50:30;;;;;;;7.85;6.40;;;;;;;17.83;100.00;101206.13;5057757;28;20102;-81
2021/06/24 08:52:57;;;;;;;8.80;6.45;;;;;;;17.83;100.00;101203.44;5056978;28;20180;-80
2021/06/24 08:55:35;;;;;;;7.30;6.10;;;;;;;17.76;100.00;101217.13;5074463;28;20033;-81
2021/06/24 08:58:02;;;;;;;7.78;5.88;;;;;;;17.71;100.00;101220.84;5054229;28;20438;-81
2021/06/24 09:00:29;;;;;;;7.20;6.43;;;;;;;17.62;100.00;101217.66;5060989;28;20111;-81
2021/06/24 09:02:58;;;;;;;8.40;6.85;;;;;;;17.69;100.00;101232.50;5059178;28;20102;-80
2021/06/24 09:05:51;;;;;;;8.60;6.20;;;;;;;17.67;100.00;101234.38;5054091;28;20041;-80
2021/06/24 09:08:37;;;;;;;8.48;6.03;;;;;;;17.63;100.00;101233.59;5065853;28;20045;-79
2021/06/24 09:11:15;;;;;;;5.97;4.95;;;;;;;17.56;100.00;101229.44;5070256;28;20049;-79
2021/06/24 09:13:57;;;;;;;6.78;6.07;;;;;;;17.56;100.00;101225.91;5047979;28;20091;-79
2021/06/24 09:16:26;;;;;;;6.05;5.45;;;;;;;17.52;100.00;101222.50;5060934;28;20746;-80
2021/06/24 09:19:12;;;;;;;6.35;5.00;;;;;;;17.62;100.00;101231.00;5043149;28;20123;-80
2021/06/24 09:21:39;;;;;;;7.25;5.85;;;;;;;17.60;100.00;101222.19;5055156;28;20045;-80
2021/06/24 09:24:27;;;;;;;7.28;5.53;;;;;;;17.61;100.00;101215.91;5039808;28;20041;-79
2021/06/24 09:26:54;;;;;;;6.30;5.47;;;;;;;17.70;100.00;101211.09;5055668;28;20052;-79
2021/06/24 09:29:21;;;;;;;8.10;6.15;;;;;;;17.73;100.00;101212.75;5044799;28;20082;-81
2021/06/24 09:31:52;;;;;;;5.82;4.95;;;;;;;17.84;100.00;101218.53;5058397;28;20051;-79
2021/06/24 09:34:19;;;;;;;6.20;5.55;;;;;;;17.92;100.00;101219.09;5048831;28;20394;-79
2021/06/24 09:36:48;;;;;;;6.70;6.00;;;;;;;17.96;100.00;101223.34;5058917;28;20082;-79
2021/06/24 09:39:17;;;;;;;6.90;6.20;;;;;;;18.06;100.00;101225.63;5065694;28;20045;-81
2021/06/24 09:42:05;;;;;;;7.35;6.32;;;;;;;18.18;100.00;101233.16;5063585;28;20044;-79
2021/06/24 09:44:34;;;;;;;6.05;5.22;;;;;;;18.28;100.00;101226.47;5051809;28;20130;-80
2021/06/24 09:47:14;;;;;;;7.75;5.35;;;;;;;18.39;100.00;101224.19;5067004;28;20044;-80
2021/06/24 09:49:40;;;;;;;8.23;5.65;;;;;;;18.42;100.00;101226.75;5052346;28;20118;-80
2021/06/24 09:52:07;;;;;;;6.70;5.60;;;;;;;18.46;100.00;101228.34;5049924;28;20063;-79
2021/06/24 09:54:41;;;;;;;6.85;5.82;;;;;;;18.52;100.00;101235.22;5055769;28;20098;-81
2021/06/24 09:57:09;;;;;;;10.10;6.07;;;;;;;18.62;100.00;101230.34;5070241;28;20037;-80
2021/06/24 09:59:39;;;;;;;5.30;4.80;;;;;;;18.61;99.60;101237.50;5066158;28;20029;-79
2021/06/24 10:02:13;;;;;;;6.82;5.13;;;;;;;18.70;100.00;101231.75;5053566;28;20494;-81
2021/06/24 10:04:41;;;;;;;6.95;5.80;;;;;;;18.78;100.00;101232.28;5053780;28;20041;-79
2021/06/24 10:07:12;;;;;;;6.65;5.10;;;;;;;18.75;99.05;101223.50;5049298;28;20746;-80
2021/06/24 10:09:40;;;;;;;5.47;4.82;;;;;;;18.74;100.00;101230.66;5047877;28;20383;-81
2021/06/24 10:12:26;;;;;;;5.30;4.72;;;;;;;18.70;96.46;101234.44;5047314;28;20383;-81
2021/06/24 10:14:56;;;;;;;6.70;5.57;;;;;;;18.64;97.56;101244.50;5050651;28;20117;-81
2021/06/24 10:17:23;;;;;;;7.40;6.18;;;;;;;18.65;92.88;101230.19;5053055;28;20040;-80
2021/06/24 10:19:51;;;;;;;8.07;5.88;;;;;;;18.54;96.66;101238.69;5053178;28;20041;-81
2021/06/24 10:22:20;;;;;;;5.90;4.50;;;;;;;18.44;98.69;101232.03;5052778;28;20559;-80
2021/06/24 10:24:52;;;;;;;8.20;4.97;;;;;;;18.42;100.00;101233.91;5050737;28;20041;-81
2021/06/24 10:27:19;;;;;;;8.43;5.40;;;;;;;18.33;100.00;101240.53;5021487;28;20089;-81
2021/06/24 10:29:47;;;;;;;8.32;6.25;;;;;;;18.24;100.00;101239.13;5053692;28;20045;-81
2021/06/24 10:32:31;;;;;;;7.35;5.53;;;;;;;18.34;100.00;101236.03;5052911;28;20118;-81
2021/06/24 10:35:01;;;;;;;6.72;5.63;;;;;;;18.35;99.78;101244.00;5054424;28;20405;-81
2021/06/24 10:37:29;;;;;;;8.55;5.15;;;;;;;18.34;98.41;101234.25;5032861;28;20053;-81
2021/06/24 10:39:58;;;;;;;5.45;4.95;;;;;;;18.34;100.00;101236.03;5033566;28;20068;-81
2021/06/24 10:42:28;;;;;;;7.13;5.32;;;;;;;18.23;100.00;101236.47;5041862;28;20105;-80
2021/06/24 10:45:00;;;;;;;6.53;5.30;;;;;;;18.22;100.00;101234.75;5059366;28;20048;-81
2021/06/24 10:47:27;;;;;;;7.00;4.93;;;;;;;18.28;100.00;101237.16;5071050;28;20182;-80
2021/06/24 10:49:54;;;;;;;8.02;5.20;;;;;;;18.36;100.00;101226.13;5069851;28;20033;-80
2021/06/24 10:52:26;;;;;;;8.38;5.85;;;;;;;18.29;98.91;101228.19;5052121;28;20063;-80
2021/06/24 10:54:53;;;;;;;6.65;5.30;;;;;;;18.18;98.81;101230.47;5070551;28;20040;-80
2021/06/24 10:57:31;;;;;;;6.28;5.60;;;;;;;18.08;100.00;101222.00;5048857;28;20580;-80
2021/06/24 11:00:35;;;;;;;7.97;5.88;;;;;;;18.21;100.00;101222.31;5033791;28;20506;-80
2021/06/24 11:03:04;;;;;;;7.57;5.63;;;;;;;18.37;100.00;101219.84;5050305;28;20498;-80
2021/06/24 11:05:42;;;;;;;9.15;5.55;;;;;;;18.47;99.99;101213.16;5067483;28;20911;-79
2021/06/24 11:08:09;;;;;;;7.63;5.63;;;;;;;18.40;96.64;101209.00;5070713;28;20093;-80
2021/06/24 11:10:49;;;;;;;6.45;5.30;;;;;;;18.48;98.57;101207.72;5052133;28;21041;-81
2021/06/24 11:13:42;;;;;;;8.05;5.40;;;;;;;18.66;100.00;101203.38;5049947;28;20059;-80
2021/06/24 11:16:19;;;;;;;6.78;5.13;;;;;;;18.81;100.00;101194.66;5049453;28;20402;-80
2021/06/24 11:18:53;;;;;;;8.50;6.00;;;;;;;18.97;100.00;101194.81;5033627;28;20037;-79
2021/06/24 11:21:30;;;;;;;8.15;6.05;;;;;;;19.13;98.19;101189.59;5048311;28;20041;-80
2021/06/24 11:24:01;;;;;;;8.27;6.88;;;;;;;19.23;93.83;101185.53;5049439;28;20041;-81